createdAt,value
2022-11-30T00:01:11.632Z,6.80
2022-11-30T00:03:38.842Z,6.90
2022-11-30T00:06:12.541Z,7.53
2022-11-30T00:08:39.918Z,8.43
2022-11-30T00:11:16.233Z,6.65
2022-11-30T00:13:43.229Z,7.40
2022-11-30T00:16:11.322Z,7.45
2022-11-30T00:18:38.831Z,7.28
2022-11-30T00:21:08.997Z,7.72
2022-11-30T00:23:37.911Z,7.45
2022-11-30T00:26:07.498Z,7.43
2022-11-30T00:28:35.298Z,6.93
2022-11-30T00:31:08.208Z,6.60
2022-11-30T00:33:36.955Z,5.53
2022-11-30T00:36:06.798Z,8.02
2022-11-30T00:38:34.248Z,5.50
2022-11-30T00:41:01.905Z,6.72
2022-11-30T00:43:29.594Z,7.53
2022-11-30T00:45:56.668Z,6.70
2022-11-30T00:48:24.983Z,6.55
2022-11-30T00:50:52.559Z,8.70
2022-11-30T00:53:20.556Z,6.03
2022-11-30T00:55:48.048Z,7.95
2022-11-30T00:58:15.189Z,6.95
2022-11-30T01:00:43.211Z,6.68
2022-11-30T01:03:10.685Z,8.75
2022-11-30T01:05:38.304Z,7.13
2022-11-30T01:08:07.575Z,7.35
2022-11-30T01:10:36.716Z,5.32
2022-11-30T01:13:04.327Z,6.22
2022-11-30T01:15:32.196Z,7.50
2022-11-30T01:18:02.192Z,6.72
2022-11-30T01:20:29.194Z,6.63
2022-11-30T01:22:57.197Z,7.15
2022-11-30T01:25:24.281Z,7.18
2022-11-30T01:27:51.819Z,7.15
2022-11-30T01:30:19.270Z,7.35
2022-11-30T01:32:46.378Z,8.25
2022-11-30T01:35:14.824Z,6.40
2022-11-30T01:37:41.853Z,7.18
2022-11-30T01:40:11.059Z,6.28
2022-11-30T01:42:38.183Z,5.93
2022-11-30T01:45:07.412Z,6.80
2022-11-30T01:47:41.981Z,6.13
2022-11-30T01:50:15.018Z,7.57
2022-11-30T01:52:46.702Z,7.40
2022-11-30T01:55:22.111Z,7.65
2022-11-30T01:57:53.914Z,6.90
2022-11-30T02:00:21.424Z,7.63
2022-11-30T02:03:02.102Z,7.07
2022-11-30T02:05:30.307Z,7.57
2022-11-30T02:07:57.786Z,6.80
2022-11-30T02:10:31.838Z,9.23
2022-11-30T02:13:38.594Z,6.68
2022-11-30T02:16:45.818Z,5.10
2022-11-30T02:19:48.742Z,7.47
2022-11-30T02:22:43.830Z,6.88
2022-11-30T02:25:35.821Z,6.07
2022-11-30T02:28:30.010Z,6.30
2022-11-30T02:31:00.382Z,7.35
2022-11-30T02:33:31.576Z,7.15
2022-11-30T02:36:00.694Z,8.02
2022-11-30T02:38:28.843Z,6.68
2022-11-30T02:40:56.031Z,6.30
2022-11-30T02:43:26.141Z,5.43
2022-11-30T02:46:24.262Z,7.00
2022-11-30T02:49:15.917Z,6.15
2022-11-30T02:51:44.422Z,6.85
2022-11-30T02:54:11.548Z,6.18
2022-11-30T02:56:38.576Z,5.45
2022-11-30T02:59:06.382Z,6.68
2022-11-30T03:01:33.508Z,7.40
2022-11-30T03:04:00.538Z,7.05
2022-11-30T03:06:27.520Z,7.60
2022-11-30T03:08:54.486Z,6.93
2022-11-30T03:11:21.635Z,6.88
2022-11-30T03:13:49.032Z,7.32
2022-11-30T03:16:16.133Z,6.25
2022-11-30T03:18:43.252Z,7.90
2022-11-30T03:21:12.510Z,6.82
2022-11-30T03:23:40.257Z,7.80
2022-11-30T03:26:09.259Z,6.85
2022-11-30T03:28:37.219Z,6.70
2022-11-30T03:31:05.083Z,6.10
2022-11-30T03:33:32.290Z,7.40
2022-11-30T03:36:03.246Z,6.00
2022-11-30T03:38:30.724Z,8.15
2022-11-30T03:41:07.067Z,6.28
2022-11-30T03:43:34.682Z,7.78
2022-11-30T03:46:03.120Z,7.30
2022-11-30T03:48:31.061Z,7.85
2022-11-30T03:50:58.782Z,7.95
2022-11-30T03:53:26.436Z,6.50
2022-11-30T03:55:59.137Z,7.20
2022-11-30T03:58:26.698Z,6.05
2022-11-30T04:01:06.598Z,7.47
2022-11-30T04:03:34.662Z,6.03
2022-11-30T04:06:03.592Z,7.20
2022-11-30T04:08:31.261Z,7.80
2022-11-30T04:11:00.180Z,7.30
2022-11-30T04:13:28.784Z,6.13
2022-11-30T04:15:56.347Z,7.18
2022-11-30T04:18:27.023Z,7.40
2022-11-30T04:20:55.933Z,7.18
2022-11-30T04:23:23.834Z,7.82
2022-11-30T04:25:52.072Z,7.97
2022-11-30T04:28:19.958Z,6.68
2022-11-30T04:30:47.547Z,6.60
2022-11-30T04:33:16.793Z,6.05
2022-11-30T04:35:51.922Z,5.07
2022-11-30T04:38:18.971Z,7.90
2022-11-30T04:40:46.070Z,7.00
2022-11-30T04:43:13.782Z,6.18
2022-11-30T04:45:41.189Z,6.53
2022-11-30T04:48:08.966Z,8.23
2022-11-30T04:50:37.570Z,9.35
2022-11-30T04:53:04.700Z,7.85
2022-11-30T04:55:32.097Z,8.45
2022-11-30T04:57:59.189Z,7.80
2022-11-30T05:00:26.318Z,7.35
2022-11-30T05:02:55.470Z,6.80
2022-11-30T05:05:23.007Z,7.20
2022-11-30T05:07:58.324Z,9.05
2022-11-30T05:10:26.784Z,6.60
2022-11-30T05:12:55.244Z,8.55
2022-11-30T05:15:23.035Z,7.38
2022-11-30T05:17:50.075Z,6.68
2022-11-30T05:20:17.300Z,7.05
2022-11-30T05:22:44.343Z,6.88
2022-11-30T05:25:12.316Z,6.78
2022-11-30T05:27:39.343Z,7.82
2022-11-30T05:30:06.983Z,6.80
2022-11-30T05:32:34.123Z,7.22
2022-11-30T05:35:01.104Z,8.20
2022-11-30T05:37:29.233Z,10.18
2022-11-30T05:39:56.214Z,11.70
2022-11-30T05:42:23.271Z,11.02
2022-11-30T05:44:50.663Z,11.00
2022-11-30T05:47:18.003Z,11.70
2022-11-30T05:49:46.116Z,11.85
2022-11-30T05:52:13.158Z,10.88
2022-11-30T05:54:40.172Z,10.05
2022-11-30T05:57:07.153Z,10.85
2022-11-30T05:59:34.240Z,11.90
2022-11-30T06:02:01.990Z,10.48
2022-11-30T06:04:29.186Z,12.70
2022-11-30T06:06:56.301Z,11.10
2022-11-30T06:09:23.826Z,11.15
2022-11-30T06:11:51.022Z,12.55
2022-11-30T06:14:18.452Z,13.00
2022-11-30T06:16:45.577Z,11.70
2022-11-30T06:19:12.670Z,9.80
2022-11-30T06:21:39.706Z,12.00
2022-11-30T06:24:07.096Z,12.38
2022-11-30T06:26:34.400Z,11.65
2022-11-30T06:29:01.457Z,12.43
2022-11-30T06:31:28.548Z,12.50
2022-11-30T06:33:59.426Z,13.27
2022-11-30T06:36:31.345Z,12.10
2022-11-30T06:39:03.077Z,14.38
2022-11-30T06:41:30.093Z,14.68
2022-11-30T06:43:57.455Z,13.60
2022-11-30T06:46:25.126Z,13.85
2022-11-30T06:48:53.070Z,13.98
2022-11-30T06:51:20.628Z,13.75
2022-11-30T06:53:47.606Z,14.32
2022-11-30T06:56:15.187Z,11.40
2022-11-30T06:58:43.261Z,11.57
2022-11-30T07:01:14.161Z,14.80
2022-11-30T07:03:42.351Z,13.57
2022-11-30T07:06:14.109Z,12.48
2022-11-30T07:08:42.348Z,16.42
2022-11-30T07:11:10.551Z,16.48
2022-11-30T07:13:38.467Z,15.73
2022-11-30T07:16:07.823Z,14.18
2022-11-30T07:18:35.181Z,16.33
2022-11-30T07:21:03.547Z,16.20
2022-11-30T07:23:56.181Z,15.35
2022-11-30T07:26:24.430Z,14.40
2022-11-30T07:28:58.536Z,14.57
2022-11-30T07:31:29.146Z,14.68
2022-11-30T07:36:26.780Z,14.27
2022-11-30T07:38:53.826Z,17.00
2022-11-30T07:41:20.805Z,16.27
2022-11-30T07:43:48.001Z,15.27
2022-11-30T07:46:16.439Z,14.80
2022-11-30T07:48:44.809Z,17.15
2022-11-30T07:51:17.676Z,15.07
2022-11-30T07:53:45.286Z,15.07
2022-11-30T07:56:15.394Z,13.40
2022-11-30T07:58:43.284Z,12.45
2022-11-30T08:01:16.924Z,16.75
2022-11-30T08:03:44.314Z,15.20
2022-11-30T08:06:17.009Z,17.48
2022-11-30T08:08:45.530Z,15.10
2022-11-30T08:11:15.065Z,13.55
2022-11-30T08:13:42.846Z,10.32
2022-11-30T08:16:12.806Z,17.27
2022-11-30T08:18:40.443Z,14.75
2022-11-30T08:21:09.703Z,14.30
2022-11-30T08:23:39.715Z,13.48
2022-11-30T08:26:10.391Z,12.45
2022-11-30T08:28:37.523Z,15.07
2022-11-30T08:31:07.873Z,14.60
2022-11-30T08:36:11.795Z,12.45
2022-11-30T08:38:40.074Z,12.80
2022-11-30T08:41:08.356Z,13.20
2022-11-30T08:43:35.511Z,13.70
2022-11-30T08:46:21.173Z,13.52
2022-11-30T08:48:53.292Z,11.70
2022-11-30T08:51:42.159Z,17.42
2022-11-30T08:54:16.982Z,15.00
2022-11-30T08:56:43.989Z,15.15
2022-11-30T08:59:11.072Z,11.75
2022-11-30T09:01:42.781Z,9.90
2022-11-30T09:04:09.814Z,12.43
2022-11-30T09:06:36.789Z,11.82
2022-11-30T09:09:03.961Z,14.65
2022-11-30T09:11:33.480Z,13.20
2022-11-30T09:14:09.195Z,12.65
2022-11-30T09:16:36.588Z,12.77
2022-11-30T09:19:03.909Z,14.63
2022-11-30T09:21:31.226Z,13.07
2022-11-30T09:23:58.250Z,13.15
2022-11-30T09:26:25.496Z,10.80
2022-11-30T09:28:55.070Z,13.25
2022-11-30T09:31:25.007Z,20.15
2022-11-30T09:33:53.422Z,13.13
2022-11-30T09:36:21.983Z,12.68
2022-11-30T09:38:49.222Z,12.23
2022-11-30T09:41:56.479Z,10.77
2022-11-30T09:44:35.072Z,13.73
2022-11-30T09:47:32.185Z,13.02
2022-11-30T09:50:05.155Z,11.48
2022-11-30T09:52:37.766Z,10.55
2022-11-30T09:55:10.669Z,13.13
2022-11-30T09:57:47.533Z,14.70
2022-11-30T10:00:19.357Z,19.73
2022-11-30T10:02:47.229Z,12.80
2022-11-30T10:05:26.918Z,14.82
2022-11-30T10:08:23.300Z,12.35
2022-11-30T10:11:30.015Z,12.32
2022-11-30T10:14:31.874Z,10.40
2022-11-30T10:17:22.663Z,12.82
2022-11-30T10:20:29.431Z,10.93
2022-11-30T10:23:25.945Z,10.73
2022-11-30T10:26:00.859Z,10.98
2022-11-30T10:28:52.206Z,12.45
2022-11-30T10:31:25.392Z,9.50
2022-11-30T10:33:55.350Z,12.95
2022-11-30T10:36:37.078Z,12.63
2022-11-30T10:39:14.557Z,12.68
2022-11-30T10:41:48.875Z,12.15
2022-11-30T10:44:23.277Z,15.65
2022-11-30T10:47:00.137Z,11.43
2022-11-30T10:49:29.894Z,9.68
2022-11-30T10:52:06.378Z,10.98
2022-11-30T10:54:36.699Z,12.40
2022-11-30T10:59:54.554Z,11.02
2022-11-30T11:02:45.474Z,16.80
2022-11-30T11:05:23.207Z,12.80
2022-11-30T11:08:07.115Z,9.63
2022-11-30T11:10:47.488Z,10.13
2022-11-30T11:13:21.240Z,8.70
2022-11-30T11:16:00.864Z,9.98
2022-11-30T11:18:30.555Z,7.32
2022-11-30T11:21:17.217Z,14.48
2022-11-30T11:23:47.520Z,11.65
2022-11-30T11:28:53.430Z,10.52
2022-11-30T11:31:39.467Z,12.20
2022-11-30T11:34:25.077Z,9.30
2022-11-30T11:37:23.843Z,12.75
2022-11-30T11:40:16.218Z,8.65
2022-11-30T11:42:49.893Z,10.98
2022-11-30T11:45:22.140Z,11.60
2022-11-30T11:47:59.838Z,8.90
2022-11-30T11:51:04.908Z,8.57
2022-11-30T11:53:51.696Z,10.90
2022-11-30T11:56:28.781Z,8.98
2022-11-30T11:59:15.792Z,10.35
2022-11-30T12:02:12.493Z,9.95
2022-11-30T12:04:53.068Z,9.30
2022-11-30T12:07:38.955Z,8.95
2022-11-30T12:10:54.077Z,11.52
2022-11-30T12:13:39.777Z,8.55
2022-11-30T12:16:40.940Z,7.78
2022-11-30T12:19:22.225Z,7.50
2022-11-30T12:22:29.023Z,8.82
2022-11-30T12:25:30.736Z,9.40
2022-11-30T12:28:21.903Z,6.28
2022-11-30T12:31:14.425Z,9.07
2022-11-30T12:34:12.628Z,9.70
2022-11-30T12:37:10.800Z,10.80
2022-11-30T12:40:04.600Z,6.82
2022-11-30T12:42:46.564Z,10.18
2022-11-30T12:45:37.469Z,9.13
2022-11-30T12:48:40.335Z,8.45
2022-11-30T12:51:35.930Z,8.40
2022-11-30T12:54:33.470Z,7.63
2022-11-30T12:57:21.468Z,7.90
2022-11-30T13:00:14.332Z,7.07
2022-11-30T13:03:00.901Z,7.55
2022-11-30T13:05:39.981Z,7.70
2022-11-30T13:08:46.822Z,7.18
2022-11-30T13:11:23.406Z,6.55
2022-11-30T13:13:55.894Z,7.82
2022-11-30T13:16:24.804Z,9.02
2022-11-30T13:18:58.248Z,7.35
2022-11-30T13:21:37.808Z,7.03
2022-11-30T13:24:28.915Z,14.45
2022-11-30T13:27:11.159Z,7.93
2022-11-30T13:30:17.839Z,7.03
2022-11-30T13:33:00.295Z,7.05
2022-11-30T13:35:41.904Z,6.88
2022-11-30T13:38:36.233Z,9.40
2022-11-30T13:41:06.508Z,8.90
2022-11-30T13:43:45.374Z,10.10
2022-11-30T13:46:20.892Z,6.38
2022-11-30T13:48:48.661Z,10.93
2022-11-30T13:51:37.016Z,5.97
2022-11-30T13:54:36.647Z,7.85
2022-11-30T13:57:15.895Z,7.28
2022-11-30T13:59:48.908Z,10.60
2022-11-30T14:05:44.475Z,9.20
2022-11-30T14:08:17.773Z,9.25
2022-11-30T14:10:47.720Z,9.88
2022-11-30T14:13:29.134Z,7.40
2022-11-30T14:16:00.655Z,8.70
2022-11-30T14:18:39.889Z,7.38
2022-11-30T14:21:31.444Z,10.27
2022-11-30T14:24:07.146Z,6.82
2022-11-30T14:26:42.594Z,11.80
2022-11-30T14:29:18.911Z,7.47
2022-11-30T14:32:15.754Z,9.80
2022-11-30T14:34:50.082Z,10.73
2022-11-30T14:37:37.921Z,13.20
2022-11-30T14:40:07.258Z,8.02
2022-11-30T14:42:38.234Z,8.50
2022-11-30T14:45:29.360Z,6.63
2022-11-30T14:48:12.358Z,9.77
2022-11-30T14:50:45.784Z,7.78
2022-11-30T14:53:40.634Z,6.90
2022-11-30T14:56:36.926Z,8.02
2022-11-30T14:59:44.420Z,8.32
2022-11-30T15:02:39.075Z,7.60
2022-11-30T15:05:09.054Z,13.30
2022-11-30T15:07:37.003Z,7.30
2022-11-30T15:10:09.827Z,7.25
2022-11-30T15:12:38.425Z,7.75
2022-11-30T15:15:31.453Z,6.88
2022-11-30T15:18:10.269Z,8.07
2022-11-30T15:21:00.566Z,10.63
2022-11-30T15:26:06.388Z,7.93
2022-11-30T15:28:43.857Z,8.07
2022-11-30T15:31:15.635Z,10.15
2022-11-30T15:33:45.553Z,9.25
2022-11-30T15:36:31.253Z,9.65
2022-11-30T15:39:04.207Z,10.27
2022-11-30T15:41:33.518Z,7.85
2022-11-30T15:44:02.366Z,10.13
2022-11-30T15:46:44.549Z,7.60
2022-11-30T15:49:25.636Z,8.70
2022-11-30T15:52:17.133Z,11.13
2022-11-30T15:54:49.845Z,12.18
2022-11-30T15:57:17.493Z,10.30
2022-11-30T15:59:45.151Z,11.13
2022-11-30T16:02:28.737Z,9.88
2022-11-30T16:05:12.210Z,8.75
2022-11-30T16:07:54.850Z,12.35
2022-11-30T16:10:26.281Z,11.63
2022-11-30T16:12:55.086Z,13.40
2022-11-30T16:15:37.375Z,8.77
2022-11-30T16:18:20.726Z,15.77
2022-11-30T16:20:51.344Z,7.53
2022-11-30T16:23:19.573Z,12.05
2022-11-30T16:25:48.531Z,12.27
2022-11-30T16:28:17.940Z,9.95
2022-11-30T16:30:45.834Z,9.67
2022-11-30T16:33:15.537Z,13.82
2022-11-30T16:35:57.584Z,16.90
2022-11-30T16:38:25.838Z,12.40
2022-11-30T16:40:56.593Z,8.52
2022-11-30T16:43:26.329Z,11.32
2022-11-30T16:45:53.392Z,8.27
2022-11-30T16:48:20.375Z,10.98
2022-11-30T16:50:47.724Z,10.73
2022-11-30T16:53:18.823Z,8.32
2022-11-30T16:55:45.877Z,11.40
2022-11-30T16:58:12.898Z,12.38
2022-11-30T17:00:40.808Z,13.25
2022-11-30T17:03:19.655Z,10.30
2022-11-30T17:05:47.067Z,10.80
2022-11-30T17:08:14.111Z,8.18
2022-11-30T17:10:42.316Z,7.70
2022-11-30T17:13:15.874Z,10.57
2022-11-30T17:15:42.909Z,7.93
2022-11-30T17:18:10.277Z,8.80
2022-11-30T17:20:38.104Z,9.27
2022-11-30T17:23:06.464Z,12.57
2022-11-30T17:25:33.746Z,10.15
2022-11-30T17:28:01.087Z,8.68
2022-11-30T17:30:28.351Z,11.98
2022-11-30T17:32:55.473Z,9.20
2022-11-30T17:35:22.483Z,9.13
2022-11-30T17:37:53.009Z,7.47
2022-11-30T17:40:19.989Z,14.50
2022-11-30T17:42:47.007Z,10.55
2022-11-30T17:45:17.220Z,8.13
2022-11-30T17:47:44.275Z,8.45
2022-11-30T17:50:11.734Z,10.90
2022-11-30T17:52:38.813Z,6.25
2022-11-30T17:55:06.267Z,12.70
2022-11-30T17:57:33.387Z,9.27
2022-11-30T18:00:01.252Z,9.38
2022-11-30T18:02:28.313Z,7.78
2022-11-30T18:04:55.998Z,10.00
2022-11-30T18:07:23.186Z,8.45
2022-11-30T18:09:50.233Z,7.68
2022-11-30T18:12:18.024Z,7.72
2022-11-30T18:14:45.935Z,5.38
2022-11-30T18:17:13.034Z,9.95
2022-11-30T18:19:40.064Z,6.78
2022-11-30T18:22:07.067Z,5.72
2022-11-30T18:24:34.836Z,5.35
2022-11-30T18:27:01.800Z,7.88
2022-11-30T18:29:28.944Z,9.55
2022-11-30T18:31:55.950Z,5.47
2022-11-30T18:34:23.031Z,10.93
2022-11-30T18:36:51.102Z,7.57
2022-11-30T18:39:18.158Z,7.28
2022-11-30T18:41:45.223Z,8.23
2022-11-30T18:44:12.353Z,6.50
2022-11-30T18:46:39.391Z,10.40
2022-11-30T18:49:07.879Z,6.50
2022-11-30T18:51:34.942Z,5.65
2022-11-30T18:54:05.356Z,8.88
2022-11-30T18:56:35.430Z,9.70
2022-11-30T18:59:05.821Z,6.20
2022-11-30T19:04:03.281Z,5.07
2022-11-30T19:06:32.948Z,8.65
2022-11-30T19:09:02.770Z,5.50
2022-11-30T19:11:31.774Z,6.43
2022-11-30T19:14:00.099Z,4.63
2022-11-30T19:16:28.415Z,5.07
2022-11-30T19:18:59.120Z,5.25
2022-11-30T19:21:27.293Z,3.97
2022-11-30T19:23:54.858Z,8.00
2022-11-30T19:26:21.847Z,4.65
2022-11-30T19:28:48.983Z,5.80
2022-11-30T19:31:20.627Z,4.93
2022-11-30T19:33:50.242Z,7.40
2022-11-30T19:36:23.497Z,5.72
2022-11-30T19:38:51.659Z,8.45
2022-11-30T19:41:20.615Z,5.35
2022-11-30T19:43:54.797Z,4.43
2022-11-30T19:46:25.008Z,5.35
2022-11-30T19:49:00.798Z,6.70
2022-11-30T19:51:29.487Z,6.72
2022-11-30T19:53:57.752Z,4.47
2022-11-30T19:56:25.770Z,3.60
2022-11-30T19:58:53.460Z,6.43
2022-11-30T20:01:23.546Z,4.80
2022-11-30T20:03:52.516Z,5.90
2022-11-30T20:06:20.329Z,4.20
2022-11-30T20:08:47.813Z,4.75
2022-11-30T20:11:16.009Z,4.63
2022-11-30T20:13:44.302Z,4.22
2022-11-30T20:16:14.658Z,5.78
2022-11-30T20:21:16.185Z,5.05
2022-11-30T20:23:44.514Z,3.43
2022-11-30T20:26:18.376Z,3.72
2022-11-30T20:28:46.338Z,3.85
2022-11-30T20:31:16.907Z,4.07
2022-11-30T20:33:45.138Z,6.07
2022-11-30T20:36:13.071Z,5.80
2022-11-30T20:38:40.691Z,5.18
2022-11-30T20:41:11.675Z,5.95
2022-11-30T20:43:38.932Z,3.78
2022-11-30T20:46:23.805Z,5.80
2022-11-30T20:48:51.457Z,5.68
2022-11-30T20:51:31.084Z,5.25
2022-11-30T20:54:05.796Z,4.78
2022-11-30T20:56:35.331Z,4.20
2022-11-30T20:59:05.149Z,4.20
2022-11-30T21:01:32.367Z,3.92
2022-11-30T21:04:00.900Z,3.63
2022-11-30T21:06:29.939Z,4.38
2022-11-30T21:08:57.427Z,4.40
2022-11-30T21:11:25.604Z,4.40
2022-11-30T21:13:53.303Z,5.03
2022-11-30T21:16:27.182Z,4.72
2022-11-30T21:18:56.778Z,4.25
2022-11-30T21:21:25.844Z,4.88
2022-11-30T21:23:53.312Z,3.80
2022-11-30T21:26:23.933Z,3.85
2022-11-30T21:28:56.593Z,5.60
2022-11-30T21:31:24.086Z,3.65
2022-11-30T21:33:53.655Z,4.03
2022-11-30T21:36:22.499Z,4.63
2022-11-30T21:38:59.559Z,3.80
2022-11-30T21:41:31.508Z,3.65
2022-11-30T21:43:59.316Z,3.25
2022-11-30T21:46:26.316Z,4.25
2022-11-30T21:48:53.407Z,4.30
2022-11-30T21:51:23.412Z,3.63
2022-11-30T21:53:52.970Z,4.32
2022-11-30T21:56:22.744Z,3.80
2022-11-30T21:58:51.303Z,4.90
2022-11-30T22:01:25.591Z,3.60
2022-11-30T22:03:56.545Z,3.58
2022-11-30T22:06:24.706Z,4.00
2022-11-30T22:08:52.304Z,3.28
2022-11-30T22:11:22.070Z,3.50
2022-11-30T22:13:53.483Z,4.43
2022-11-30T22:16:22.936Z,3.05
2022-11-30T22:18:53.468Z,3.67
2022-11-30T22:23:57.716Z,3.25
2022-11-30T22:26:37.088Z,4.28
2022-11-30T22:29:13.335Z,3.45
2022-11-30T22:31:43.063Z,3.53
2022-11-30T22:34:11.075Z,3.60
2022-11-30T22:36:41.053Z,3.40
2022-11-30T22:39:21.222Z,3.42
2022-11-30T22:41:54.782Z,3.88
2022-11-30T22:44:23.893Z,4.30
2022-11-30T22:46:51.055Z,3.70
2022-11-30T22:49:21.080Z,3.97
2022-11-30T22:51:49.676Z,3.22
2022-11-30T22:54:17.075Z,4.70
2022-11-30T22:56:46.581Z,3.28
2022-11-30T22:59:14.959Z,3.72
2022-11-30T23:01:45.715Z,3.40
2022-11-30T23:04:15.974Z,3.13
2022-11-30T23:06:44.079Z,4.13
2022-11-30T23:09:17.257Z,6.75
2022-11-30T23:11:44.860Z,4.43
2022-11-30T23:14:12.404Z,4.22
2022-11-30T23:16:40.776Z,3.03
2022-11-30T23:19:08.530Z,4.28
2022-11-30T23:21:41.372Z,4.40
2022-11-30T23:24:13.590Z,3.60
2022-11-30T23:26:41.523Z,3.55
2022-11-30T23:29:12.365Z,3.58
2022-11-30T23:31:41.216Z,4.13
2022-11-30T23:34:11.044Z,3.15
2022-11-30T23:36:38.648Z,3.80
2022-11-30T23:39:11.741Z,3.92
2022-11-30T23:41:39.615Z,2.88
2022-11-30T23:44:07.588Z,4.22
2022-11-30T23:46:35.190Z,3.22
2022-11-30T23:49:03.018Z,2.95
2022-11-30T23:51:30.168Z,4.70
2022-11-30T23:53:57.326Z,3.00
2022-11-30T23:56:24.980Z,4.10
2022-11-30T23:58:52.720Z,2.65
